sensor_id;sensor_type;location;lat;lon;timestamp;pressure;altitude;pressure_sealevel;temperature;humidity
76847;BME280;65813;49.546;8.644;2024-03-29T00:01:17;98763.66;;;9.59;54.13
76847;BME280;65813;49.546;8.644;2024-03-29T00:05:18;98749.63;;;9.67;53.41
76847;BME280;65813;49.546;8.644;2024-03-29T00:09:19;98738.31;;;9.65;53.55
76847;BME280;65813;49.546;8.644;2024-03-29T00:13:19;98738.31;;;9.65;54.38
76847;BME280;65813;49.546;8.644;2024-03-29T00:17:20;98717.16;;;9.91;52.05
76847;BME280;65813;49.546;8.644;2024-03-29T00:21:20;98704.72;;;9.91;52.04
76847;BME280;65813;49.546;8.644;2024-03-29T00:25:21;98708.59;;;9.97;51.73
76847;BME280;65813;49.546;8.644;2024-03-29T00:29:21;98714.75;;;9.97;52.13
76847;BME280;65813;49.546;8.644;2024-03-29T00:33:21;98706.09;;;9.95;52.15
76847;BME280;65813;49.546;8.644;2024-03-29T00:37:22;98706.09;;;9.95;51.89
76847;BME280;65813;49.546;8.644;2024-03-29T00:41:22;98712.69;;;9.91;52.38
76847;BME280;65813;49.546;8.644;2024-03-29T00:45:23;98714.31;;;10.02;50.77
76847;BME280;65813;49.546;8.644;2024-03-29T00:49:23;98693.22;;;9.91;51.94
76847;BME280;65813;49.546;8.644;2024-03-29T00:53:24;98684.72;;;9.87;52.34
76847;BME280;65813;49.546;8.644;2024-03-29T04:48:46;98658.97;;;11.44;62.54
76847;BME280;65813;49.546;8.644;2024-03-29T04:52:47;98647.97;;;11.47;63.05
76847;BME280;65813;49.546;8.644;2024-03-29T04:56:47;98643.78;;;11.36;62.42
76847;BME280;65813;49.546;8.644;2024-03-29T05:00:48;98653.03;;;11.24;63.84
76847;BME280;65813;49.546;8.644;2024-03-29T05:04:49;98655.81;;;11.14;63.89
76847;BME280;65813;49.546;8.644;2024-03-29T05:08:49;98658.16;;;11.18;66.26
76847;BME280;65813;49.546;8.644;2024-03-29T05:12:49;98658.28;;;11.08;66.57
76847;BME280;65813;49.546;8.644;2024-03-29T05:16:50;98657.63;;;11.14;65.53
76847;BME280;65813;49.546;8.644;2024-03-29T05:20:51;98653.66;;;11.10;65.05
76847;BME280;65813;49.546;8.644;2024-03-29T05:24:54;98654.94;;;10.80;63.70
76847;BME280;65813;49.546;8.644;2024-03-29T05:28:54;98640.84;;;10.62;63.49
76847;BME280;65813;49.546;8.644;2024-03-29T05:32:57;98640.28;;;10.50;63.63
76847;BME280;65813;49.546;8.644;2024-03-29T05:36:57;98634.88;;;10.42;63.33
76847;BME280;65813;49.546;8.644;2024-03-29T05:40:58;98633.72;;;10.45;62.15
76847;BME280;65813;49.546;8.644;2024-03-29T05:44:58;98632.06;;;10.44;61.46
76847;BME280;65813;49.546;8.644;2024-03-29T05:48:59;98630.00;;;10.38;60.75
76847;BME280;65813;49.546;8.644;2024-03-29T05:52:59;98637.72;;;10.41;60.06
76847;BME280;65813;49.546;8.644;2024-03-29T05:57:01;98639.66;;;10.39;62.00
76847;BME280;65813;49.546;8.644;2024-03-29T06:01:01;98652.19;;;10.64;59.09
76847;BME280;65813;49.546;8.644;2024-03-29T06:05:02;98662.66;;;10.65;58.82
76847;BME280;65813;49.546;8.644;2024-03-29T06:09:02;98665.03;;;10.69;58.46
76847;BME280;65813;49.546;8.644;2024-03-29T06:13:03;98686.19;;;10.52;61.86
76847;BME280;65813;49.546;8.644;2024-03-29T06:17:22;98688.09;;;10.60;58.64
76847;BME280;65813;49.546;8.644;2024-03-29T06:21:22;98691.44;;;10.62;58.74
76847;BME280;65813;49.546;8.644;2024-03-29T06:25:23;98693.09;;;10.63;59.35
76847;BME280;65813;49.546;8.644;2024-03-29T06:29:23;98680.72;;;10.72;58.06
76847;BME280;65813;49.546;8.644;2024-03-29T06:33:23;98685.53;;;10.76;57.72
76847;BME280;65813;49.546;8.644;2024-03-29T06:37:24;98690.44;;;10.63;64.38
76847;BME280;65813;49.546;8.644;2024-03-29T06:41:25;98683.09;;;10.57;62.67
76847;BME280;65813;49.546;8.644;2024-03-29T06:45:25;98687.34;;;10.50;63.84
76847;BME280;65813;49.546;8.644;2024-03-29T06:49:26;98689.72;;;10.35;68.00
76847;BME280;65813;49.546;8.644;2024-03-29T06:53:26;98688.19;;;10.33;66.65
76847;BME280;65813;49.546;8.644;2024-03-29T06:57:26;98682.78;;;10.25;68.29
76847;BME280;65813;49.546;8.644;2024-03-29T07:01:31;98683.50;;;10.27;68.92
76847;BME280;65813;49.546;8.644;2024-03-29T07:05:31;98673.69;;;10.27;69.58
76847;BME280;65813;49.546;8.644;2024-03-29T07:09:31;98678.47;;;10.24;70.75
76847;BME280;65813;49.546;8.644;2024-03-29T07:13:32;98656.56;;;10.30;69.84
76847;BME280;65813;49.546;8.644;2024-03-29T07:17:32;98668.91;;;10.31;68.06
76847;BME280;65813;49.546;8.644;2024-03-29T07:21:32;98658.94;;;10.33;69.41
76847;BME280;65813;49.546;8.644;2024-03-29T07:25:33;98659.44;;;10.36;69.52
76847;BME280;65813;49.546;8.644;2024-03-29T07:29:33;98652.00;;;10.40;71.38
76847;BME280;65813;49.546;8.644;2024-03-29T07:33:36;98647.34;;;10.42;71.64
76847;BME280;65813;49.546;8.644;2024-03-29T07:37:36;98670.00;;;10.46;70.98
76847;BME280;65813;49.546;8.644;2024-03-29T07:41:36;98675.19;;;10.47;72.42
76847;BME280;65813;49.546;8.644;2024-03-29T07:45:37;98690.69;;;10.52;70.99
76847;BME280;65813;49.546;8.644;2024-03-29T07:49:37;98694.34;;;10.51;68.90
76847;BME280;65813;49.546;8.644;2024-03-29T07:53:37;98695.69;;;10.55;69.66
76847;BME280;65813;49.546;8.644;2024-03-29T07:57:38;98703.63;;;10.47;71.28
76847;BME280;65813;49.546;8.644;2024-03-29T08:01:38;98706.28;;;10.47;71.37
76847;BME280;65813;49.546;8.644;2024-03-29T08:05:41;98714.09;;;10.48;72.87
76847;BME280;65813;49.546;8.644;2024-03-29T08:09:41;98709.94;;;10.46;73.11
76847;BME280;65813;49.546;8.644;2024-03-29T08:13:42;98705.84;;;10.51;75.53
76847;BME280;65813;49.546;8.644;2024-03-29T08:17:42;98712.25;;;10.41;77.01
76847;BME280;65813;49.546;8.644;2024-03-29T08:21:42;98711.47;;;10.31;80.72
76847;BME280;65813;49.546;8.644;2024-03-29T08:25:43;98712.06;;;10.25;83.63
76847;BME280;65813;49.546;8.644;2024-03-29T08:29:44;98716.94;;;10.29;82.82
76847;BME280;65813;49.546;8.644;2024-03-29T08:33:44;98722.94;;;10.49;75.49
76847;BME280;65813;49.546;8.644;2024-03-29T08:37:45;98741.56;;;10.67;75.10
76847;BME280;65813;49.546;8.644;2024-03-29T08:41:46;98738.81;;;10.76;75.10
76847;BME280;65813;49.546;8.644;2024-03-29T08:45:46;98741.34;;;10.78;76.35
76847;BME280;65813;49.546;8.644;2024-03-29T08:49:47;98748.03;;;10.82;77.75
76847;BME280;65813;49.546;8.644;2024-03-29T08:53:47;98768.94;;;10.77;78.58
76847;BME280;65813;49.546;8.644;2024-03-29T08:57:47;98776.72;;;10.70;80.36
76847;BME280;65813;49.546;8.644;2024-03-29T09:01:48;98799.72;;;10.71;82.72
76847;BME280;65813;49.546;8.644;2024-03-29T09:05:49;98801.75;;;10.59;85.15
76847;BME280;65813;49.546;8.644;2024-03-29T09:09:50;98810.78;;;10.49;85.59
76847;BME280;65813;49.546;8.644;2024-03-29T09:13:50;98814.81;;;10.35;86.22
76847;BME280;65813;49.546;8.644;2024-03-29T09:17:50;98814.81;;;10.35;87.88
76847;BME280;65813;49.546;8.644;2024-03-29T09:21:54;98834.16;;;10.28;90.06
76847;BME280;65813;49.546;8.644;2024-03-29T09:25:56;98852.03;;;10.18;90.22
76847;BME280;65813;49.546;8.644;2024-03-29T09:29:56;98860.00;;;10.18;92.49
76847;BME280;65813;49.546;8.644;2024-03-29T09:33:56;98864.13;;;10.02;94.03
76847;BME280;65813;49.546;8.644;2024-03-29T09:37:57;98876.31;;;9.95;95.57
76847;BME280;65813;49.546;8.644;2024-03-29T09:42:02;98886.00;;;9.87;98.24
76847;BME280;65813;49.546;8.644;2024-03-29T09:46:03;98888.53;;;9.88;98.06
76847;BME280;65813;49.546;8.644;2024-03-29T09:50:05;98893.13;;;9.86;97.33
76847;BME280;65813;49.546;8.644;2024-03-29T09:54:08;98893.69;;;9.99;97.87
76847;BME280;65813;49.546;8.644;2024-03-29T09:58:12;98893.94;;;9.96;99.08
76847;BME280;65813;49.546;8.644;2024-03-29T10:02:18;98900.84;;;9.89;99.48
76847;BME280;65813;49.546;8.644;2024-03-29T10:06:20;98912.44;;;9.98;100.00
76847;BME280;65813;49.546;8.644;2024-03-29T10:10:21;98906.38;;;10.05;99.88
76847;BME280;65813;49.546;8.644;2024-03-29T10:14:22;98907.66;;;10.01;99.13
76847;BME280;65813;49.546;8.644;2024-03-29T10:18:25;98923.63;;;10.01;98.76
76847;BME280;65813;49.546;8.644;2024-03-29T10:22:26;98917.19;;;9.94;100.00
76847;BME280;65813;49.546;8.644;2024-03-29T10:26:26;98910.06;;;9.95;100.00
76847;BME280;65813;49.546;8.644;2024-03-29T10:30:27;98907.38;;;10.04;100.00
76847;BME280;65813;49.546;8.644;2024-03-29T10:34:27;98905.25;;;10.08;100.00
76847;BME280;65813;49.546;8.644;2024-03-29T10:38:33;98888.84;;;10.22;100.00
76847;BME280;65813;49.546;8.644;2024-03-29T10:42:36;98878.63;;;10.45;100.00
76847;BME280;65813;49.546;8.644;2024-03-29T10:46:37;98870.91;;;10.51;100.00
76847;BME280;65813;49.546;8.644;2024-03-29T10:50:39;98851.34;;;10.60;100.00
76847;BME280;65813;49.546;8.644;2024-03-29T10:54:44;98842.38;;;10.79;100.00
76847;BME280;65813;49.546;8.644;2024-03-29T10:58:50;98828.91;;;10.98;100.00
76847;BME280;65813;49.546;8.644;2024-03-29T11:03:02;98824.34;;;11.08;100.00
76847;BME280;65813;49.546;8.644;2024-03-29T11:07:07;98815.56;;;11.16;100.00
76847;BME280;65813;49.546;8.644;2024-03-29T11:11:12;98804.75;;;11.18;100.00
76847;BME280;65813;49.546;8.644;2024-03-29T11:15:22;98805.03;;;11.32;100.00
76847;BME280;65813;49.546;8.644;2024-03-29T11:19:27;98807.88;;;11.31;100.00
76847;BME280;65813;49.546;8.644;2024-03-29T11:23:28;98808.59;;;11.41;100.00
76847;BME280;65813;49.546;8.644;2024-03-29T11:27:28;98810.56;;;11.39;100.00
76847;BME280;65813;49.546;8.644;2024-03-29T11:31:29;98792.16;;;11.53;100.00
76847;BME280;65813;49.546;8.644;2024-03-29T11:35:32;98766.88;;;11.65;100.00
76847;BME280;65813;49.546;8.644;2024-03-29T11:39:33;98787.00;;;11.78;100.00
76847;BME280;65813;49.546;8.644;2024-03-29T11:43:35;98784.00;;;11.81;100.00
76847;BME280;65813;49.546;8.644;2024-03-29T11:47:40;98788.53;;;11.62;100.00
76847;BME280;65813;49.546;8.644;2024-03-29T11:51:41;98782.75;;;11.67;100.00
76847;BME280;65813;49.546;8.644;2024-03-29T11:55:42;98790.38;;;11.62;100.00
76847;BME280;65813;49.546;8.644;2024-03-29T11:59:43;98800.75;;;11.65;100.00
76847;BME280;65813;49.546;8.644;2024-03-29T12:03:43;98818.72;;;11.63;100.00
76847;BME280;65813;49.546;8.644;2024-03-29T12:07:45;98826.06;;;11.61;100.00
76847;BME280;65813;49.546;8.644;2024-03-29T12:11:47;98835.94;;;11.69;100.00
76847;BME280;65813;49.546;8.644;2024-03-29T12:15:48;98849.22;;;11.60;100.00
76847;BME280;65813;49.546;8.644;2024-03-29T12:19:48;98867.38;;;11.57;100.00
76847;BME280;65813;49.546;8.644;2024-03-29T12:23:49;98879.19;;;11.54;100.00
76847;BME280;65813;49.546;8.644;2024-03-29T12:27:52;98881.00;;;11.54;100.00
76847;BME280;65813;49.546;8.644;2024-03-29T12:31:58;98894.28;;;11.46;100.00
76847;BME280;65813;49.546;8.644;2024-03-29T12:35:58;98889.41;;;11.41;100.00
76847;BME280;65813;49.546;8.644;2024-03-29T12:39:59;98893.22;;;11.39;100.00
76847;BME280;65813;49.546;8.644;2024-03-29T12:44:00;98884.06;;;11.41;100.00
76847;BME280;65813;49.546;8.644;2024-03-29T12:48:00;98909.38;;;11.37;100.00
76847;BME280;65813;49.546;8.644;2024-03-29T12:52:00;98902.38;;;11.36;100.00
76847;BME280;65813;49.546;8.644;2024-03-29T12:56:01;98904.59;;;11.41;100.00
76847;BME280;65813;49.546;8.644;2024-03-29T13:00:01;98905.34;;;11.33;100.00
76847;BME280;65813;49.546;8.644;2024-03-29T13:04:03;98906.75;;;11.45;100.00
76847;BME280;65813;49.546;8.644;2024-03-29T13:08:04;98912.59;;;11.41;100.00
76847;BME280;65813;49.546;8.644;2024-03-29T13:12:07;98924.91;;;11.42;100.00
76847;BME280;65813;49.546;8.644;2024-03-29T13:16:07;98933.44;;;11.45;100.00
76847;BME280;65813;49.546;8.644;2024-03-29T13:20:09;98930.75;;;11.28;100.00
76847;BME280;65813;49.546;8.644;2024-03-29T13:24:09;98931.69;;;11.19;100.00
76847;BME280;65813;49.546;8.644;2024-03-29T13:28:10;98939.81;;;11.17;100.00
76847;BME280;65813;49.546;8.644;2024-03-29T13:32:10;98950.78;;;11.14;100.00
76847;BME280;65813;49.546;8.644;2024-03-29T13:36:11;98949.69;;;11.17;100.00
76847;BME280;65813;49.546;8.644;2024-03-29T13:40:12;98950.78;;;11.14;100.00
76847;BME280;65813;49.546;8.644;2024-03-29T13:44:12;98973.69;;;11.07;100.00
76847;BME280;65813;49.546;8.644;2024-03-29T13:48:17;98977.75;;;11.11;100.00
76847;BME280;65813;49.546;8.644;2024-03-29T13:52:18;98971.31;;;11.13;100.00
76847;BME280;65813;49.546;8.644;2024-03-29T13:56:21;98955.78;;;11.27;100.00
76847;BME280;65813;49.546;8.644;2024-03-29T14:00:21;98951.03;;;11.21;100.00
76847;BME280;65813;49.546;8.644;2024-03-29T14:04:22;98949.81;;;11.33;100.00
76847;BME280;65813;49.546;8.644;2024-03-29T14:08:22;98944.31;;;11.34;100.00
76847;BME280;65813;49.546;8.644;2024-03-29T14:12:23;98950.81;;;11.32;100.00
76847;BME280;65813;49.546;8.644;2024-03-29T14:16:24;98952.41;;;11.25;100.00
76847;BME280;65813;49.546;8.644;2024-03-29T14:20:24;98929.03;;;11.36;100.00
76847;BME280;65813;49.546;8.644;2024-03-29T14:24:25;98916.47;;;11.29;100.00
76847;BME280;65813;49.546;8.644;2024-03-29T14:28:25;98885.44;;;11.45;100.00
76847;BME280;65813;49.546;8.644;2024-03-29T14:32:25;98888.47;;;11.50;100.00
76847;BME280;65813;49.546;8.644;2024-03-29T14:36:26;98874.19;;;11.77;100.00
76847;BME280;65813;49.546;8.644;2024-03-29T14:40:26;98857.75;;;11.64;100.00
76847;BME280;65813;49.546;8.644;2024-03-29T14:44:27;98865.97;;;11.71;100.00
76847;BME280;65813;49.546;8.644;2024-03-29T14:48:27;98880.63;;;11.92;100.00
76847;BME280;65813;49.546;8.644;2024-03-29T14:52:28;98892.50;;;11.98;100.00
76847;BME280;65813;49.546;8.644;2024-03-29T14:56:28;98888.34;;;12.03;100.00
76847;BME280;65813;49.546;8.644;2024-03-29T15:00:30;98886.06;;;12.08;100.00
76847;BME280;65813;49.546;8.644;2024-03-29T15:04:31;98871.03;;;12.07;100.00
76847;BME280;65813;49.546;8.644;2024-03-29T15:08:32;98857.69;;;12.07;100.00
76847;BME280;65813;49.546;8.644;2024-03-29T15:12:32;98865.38;;;12.10;100.00
76847;BME280;65813;49.546;8.644;2024-03-29T15:16:33;98858.00;;;12.04;100.00
76847;BME280;65813;49.546;8.644;2024-03-29T15:20:33;98863.00;;;11.99;100.00
76847;BME280;65813;49.546;8.644;2024-03-29T15:24:33;98866.97;;;11.95;100.00
76847;BME280;65813;49.546;8.644;2024-03-29T15:28:34;98860.28;;;11.91;100.00
76847;BME280;65813;49.546;8.644;2024-03-29T15:32:55;98870.47;;;11.96;100.00
76847;BME280;65813;49.546;8.644;2024-03-29T15:36:56;98858.44;;;11.92;100.00
76847;BME280;65813;49.546;8.644;2024-03-29T15:40:59;98872.84;;;12.07;100.00
76847;BME280;65813;49.546;8.644;2024-03-29T15:45:00;98861.03;;;12.09;100.00
76847;BME280;65813;49.546;8.644;2024-03-29T15:49:00;98854.34;;;12.13;100.00
76847;BME280;65813;49.546;8.644;2024-03-29T15:53:01;98841.81;;;12.40;100.00
76847;BME280;65813;49.546;8.644;2024-03-29T15:57:01;98840.66;;;12.50;100.00
76847;BME280;65813;49.546;8.644;2024-03-29T16:01:04;98840.16;;;12.55;100.00
76847;BME280;65813;49.546;8.644;2024-03-29T16:05:09;98839.84;;;12.58;100.00
76847;BME280;65813;49.546;8.644;2024-03-29T16:09:10;98835.16;;;12.52;100.00
76847;BME280;65813;49.546;8.644;2024-03-29T16:13:10;98833.81;;;12.56;100.00
76847;BME280;65813;49.546;8.644;2024-03-29T16:17:11;98844.19;;;12.59;100.00
76847;BME280;65813;49.546;8.644;2024-03-29T16:21:11;98837.81;;;12.52;100.00
76847;BME280;65813;49.546;8.644;2024-03-29T16:25:11;98839.00;;;12.65;100.00
76847;BME280;65813;49.546;8.644;2024-03-29T16:29:12;98847.03;;;12.65;100.00
76847;BME280;65813;49.546;8.644;2024-03-29T16:33:14;98837.38;;;12.73;100.00
76847;BME280;65813;49.546;8.644;2024-03-29T16:37:15;98844.38;;;12.65;100.00
76847;BME280;65813;49.546;8.644;2024-03-29T16:41:15;98837.88;;;12.68;100.00
76847;BME280;65813;49.546;8.644;2024-03-29T16:45:16;98834.50;;;12.66;100.00
76847;BME280;65813;49.546;8.644;2024-03-29T16:49:17;98830.84;;;12.67;100.00
76847;BME280;65813;49.546;8.644;2024-03-29T16:53:17;98822.16;;;12.73;100.00
76847;BME280;65813;49.546;8.644;2024-03-29T16:57:17;98816.81;;;12.57;100.00
76847;BME280;65813;49.546;8.644;2024-03-29T17:01:18;98804.09;;;12.43;100.00
76847;BME280;65813;49.546;8.644;2024-03-29T17:05:18;98801.75;;;12.40;100.00
76847;BME280;65813;49.546;8.644;2024-03-29T17:09:54;98795.34;;;12.25;100.00
76847;BME280;65813;49.546;8.644;2024-03-29T17:13:54;98785.84;;;12.22;100.00
76847;BME280;65813;49.546;8.644;2024-03-29T17:17:54;98788.97;;;12.18;100.00
76847;BME280;65813;49.546;8.644;2024-03-29T17:21:55;98799.47;;;12.03;100.00
76847;BME280;65813;49.546;8.644;2024-03-29T17:25:55;98810.31;;;12.09;100.00
76847;BME280;65813;49.546;8.644;2024-03-29T17:29:56;98787.84;;;12.20;100.00
76847;BME280;65813;49.546;8.644;2024-03-29T17:33:56;98776.66;;;12.17;100.00
76847;BME280;65813;49.546;8.644;2024-03-29T17:37:56;98786.78;;;12.05;100.00
76847;BME280;65813;49.546;8.644;2024-03-29T17:41:57;98790.09;;;11.99;100.00
76847;BME280;65813;49.546;8.644;2024-03-29T17:45:58;98795.91;;;11.94;100.00
76847;BME280;65813;49.546;8.644;2024-03-29T17:49:58;98796.09;;;11.93;100.00
76847;BME280;65813;49.546;8.644;2024-03-29T17:53:58;98803.53;;;11.81;100.00
76847;BME280;65813;49.546;8.644;2024-03-29T17:57:59;98816.50;;;11.76;100.00
76847;BME280;65813;49.546;8.644;2024-03-29T18:01:59;98815.72;;;11.66;100.00
76847;BME280;65813;49.546;8.644;2024-03-29T18:06:00;98808.38;;;11.60;100.00
76847;BME280;65813;49.546;8.644;2024-03-29T18:10:01;98818.72;;;11.63;100.00
76847;BME280;65813;49.546;8.644;2024-03-29T18:14:01;98815.84;;;11.56;100.00
76847;BME280;65813;49.546;8.644;2024-03-29T18:18:02;98805.09;;;11.40;100.00
76847;BME280;65813;49.546;8.644;2024-03-29T18:22:02;98802.31;;;11.50;100.00
76847;BME280;65813;49.546;8.644;2024-03-29T18:26:03;98810.06;;;11.61;100.00
76847;BME280;65813;49.546;8.644;2024-03-29T18:30:03;98803.16;;;11.50;100.00
76847;BME280;65813;49.546;8.644;2024-03-29T18:34:04;98802.63;;;11.47;100.00
76847;BME280;65813;49.546;8.644;2024-03-29T18:38:04;98823.91;;;11.39;100.00
76847;BME280;65813;49.546;8.644;2024-03-29T18:42:04;98812.78;;;11.43;100.00
76847;BME280;65813;49.546;8.644;2024-03-29T18:46:05;98809.19;;;11.35;100.00
76847;BME280;65813;49.546;8.644;2024-03-29T18:50:06;98814.81;;;11.24;100.00
76847;BME280;65813;49.546;8.644;2024-03-29T18:54:07;98814.81;;;11.24;100.00
76847;BME280;65813;49.546;8.644;2024-03-29T18:58:07;98815.66;;;11.06;100.00
76847;BME280;65813;49.546;8.644;2024-03-29T19:02:08;98825.84;;;11.11;100.00
76847;BME280;65813;49.546;8.644;2024-03-29T19:06:08;98826.03;;;11.09;100.00
76847;BME280;65813;49.546;8.644;2024-03-29T19:10:09;98827.84;;;11.09;100.00
76847;BME280;65813;49.546;8.644;2024-03-29T19:14:09;98840.78;;;10.86;100.00
76847;BME280;65813;49.546;8.644;2024-03-29T19:18:09;98838.81;;;11.06;100.00
76847;BME280;65813;49.546;8.644;2024-03-29T19:22:13;98834.06;;;11.00;100.00
76847;BME280;65813;49.546;8.644;2024-03-29T19:26:13;98829.84;;;10.89;100.00
76847;BME280;65813;49.546;8.644;2024-03-29T19:30:14;98816.88;;;10.94;100.00
76847;BME280;65813;49.546;8.644;2024-03-29T19:34:15;98817.72;;;10.77;100.00
76847;BME280;65813;49.546;8.644;2024-03-29T19:38:15;98810.66;;;10.68;100.00
76847;BME280;65813;49.546;8.644;2024-03-29T19:42:17;98819.63;;;10.67;100.00
76847;BME280;65813;49.546;8.644;2024-03-29T19:46:17;98814.19;;;10.41;100.00
76847;BME280;65813;49.546;8.644;2024-03-29T19:50:18;98806.41;;;10.57;100.00
76847;BME280;65813;49.546;8.644;2024-03-29T19:54:18;98802.34;;;10.53;100.00
76847;BME280;65813;49.546;8.644;2024-03-29T19:58:19;98802.34;;;10.53;100.00
76847;BME280;65813;49.546;8.644;2024-03-29T20:02:20;98807.25;;;10.58;100.00
76847;BME280;65813;49.546;8.644;2024-03-29T20:06:21;98799.84;;;10.52;100.00
76847;BME280;65813;49.546;8.644;2024-03-29T20:10:22;98788.88;;;10.55;100.00
76847;BME280;65813;49.546;8.644;2024-03-29T20:14:22;98796.97;;;10.63;100.00
76847;BME280;65813;49.546;8.644;2024-03-29T20:18:27;98798.56;;;10.56;100.00
76847;BME280;65813;49.546;8.644;2024-03-29T20:22:28;98788.28;;;10.61;100.00
76847;BME280;65813;49.546;8.644;2024-03-29T20:26:28;98785.84;;;10.50;100.00
76847;BME280;65813;49.546;8.644;2024-03-29T20:30:30;98785.84;;;10.50;100.00
76847;BME280;65813;49.546;8.644;2024-03-29T20:34:30;98786.28;;;10.45;100.00
76847;BME280;65813;49.546;8.644;2024-03-29T20:38:30;98794.50;;;10.52;100.00
76847;BME280;65813;49.546;8.644;2024-03-29T20:42:31;98793.69;;;10.51;100.00
76847;BME280;65813;49.546;8.644;2024-03-29T20:46:32;98781.06;;;10.53;100.00
76847;BME280;65813;49.546;8.644;2024-03-29T20:50:33;98775.81;;;10.44;100.00
76847;BME280;65813;49.546;8.644;2024-03-29T20:54:34;98769.31;;;10.29;100.00
76847;BME280;65813;49.546;8.644;2024-03-29T20:58:35;98762.41;;;10.36;100.00
76847;BME280;65813;49.546;8.644;2024-03-29T21:02:36;98761.81;;;10.42;100.00
76847;BME280;65813;49.546;8.644;2024-03-29T21:06:55;98764.94;;;10.37;100.00
76847;BME280;65813;49.546;8.644;2024-03-29T21:10:55;98774.09;;;10.25;100.00
76847;BME280;65813;49.546;8.644;2024-03-29T21:14:56;98771.31;;;10.27;100.00
76847;BME280;65813;49.546;8.644;2024-03-29T21:18:56;98772.22;;;10.35;100.00
76847;BME280;65813;49.546;8.644;2024-03-29T21:22:57;98770.03;;;10.31;100.00
76847;BME280;65813;49.546;8.644;2024-03-29T21:26:58;98771.38;;;10.07;100.00
76847;BME280;65813;49.546;8.644;2024-03-29T21:30:58;98760.66;;;10.27;100.00
76847;BME280;65813;49.546;8.644;2024-03-29T21:34:59;98753.34;;;10.29;100.00
76847;BME280;65813;49.546;8.644;2024-03-29T21:38:59;98770.25;;;10.20;100.00
76847;BME280;65813;49.546;8.644;2024-03-29T21:43:00;98774.31;;;10.14;100.00
76847;BME280;65813;49.546;8.644;2024-03-29T21:47:00;98779.91;;;10.11;100.00
76847;BME280;65813;49.546;8.644;2024-03-29T21:51:00;98777.53;;;10.08;100.00
76847;BME280;65813;49.546;8.644;2024-03-29T21:55:01;98764.53;;;10.05;100.00
76847;BME280;65813;49.546;8.644;2024-03-29T21:59:01;98772.13;;;10.00;100.00
76847;BME280;65813;49.546;8.644;2024-03-29T22:03:02;98776.47;;;10.01;100.00
76847;BME280;65813;49.546;8.644;2024-03-29T22:07:03;98779.28;;;9.99;100.00
76847;BME280;65813;49.546;8.644;2024-03-29T22:11:03;98778.03;;;9.94;100.00
76847;BME280;65813;49.546;8.644;2024-03-29T22:15:04;98782.44;;;9.85;100.00
76847;BME280;65813;49.546;8.644;2024-03-29T22:19:04;98778.94;;;9.85;100.00
76847;BME280;65813;49.546;8.644;2024-03-29T22:23:05;98781.44;;;9.86;100.00
76847;BME280;65813;49.546;8.644;2024-03-29T22:27:05;98777.25;;;9.84;100.00
76847;BME280;65813;49.546;8.644;2024-03-29T22:31:06;98770.00;;;9.76;100.00
76847;BME280;65813;49.546;8.644;2024-03-29T22:35:07;98770.59;;;9.70;100.00
76847;BME280;65813;49.546;8.644;2024-03-29T22:39:07;98768.38;;;9.65;100.00
76847;BME280;65813;49.546;8.644;2024-03-29T22:43:08;98763.34;;;9.72;100.00
76847;BME280;65813;49.546;8.644;2024-03-29T22:47:08;98761.69;;;9.61;100.00
76847;BME280;65813;49.546;8.644;2024-03-29T22:51:08;98775.13;;;9.60;100.00
76847;BME280;65813;49.546;8.644;2024-03-29T22:55:09;98773.75;;;9.56;100.00
76847;BME280;65813;49.546;8.644;2024-03-29T22:59:09;98770.09;;;9.57;100.00
76847;BME280;65813;49.546;8.644;2024-03-29T23:03:10;98780.19;;;9.53;100.00
76847;BME280;65813;49.546;8.644;2024-03-29T23:07:10;98785.22;;;9.56;100.00
76847;BME280;65813;49.546;8.644;2024-03-29T23:11:12;98765.22;;;9.52;100.00
76847;BME280;65813;49.546;8.644;2024-03-29T23:15:13;98771.00;;;9.48;100.00
76847;BME280;65813;49.546;8.644;2024-03-29T23:19:13;98780.78;;;9.47;100.00
76847;BME280;65813;49.546;8.644;2024-03-29T23:23:14;98775.47;;;9.47;100.00
76847;BME280;65813;49.546;8.644;2024-03-29T23:27:14;98783.28;;;9.49;100.00
76847;BME280;65813;49.546;8.644;2024-03-29T23:31:14;98785.25;;;9.47;100.00
76847;BME280;65813;49.546;8.644;2024-03-29T23:35:15;98784.44;;;9.37;100.00
76847;BME280;65813;49.546;8.644;2024-03-29T23:39:15;98789.59;;;9.38;100.00
76847;BME280;65813;49.546;8.644;2024-03-29T23:44:27;98791.47;;;9.19;100.00
76847;BME280;65813;49.546;8.644;2024-03-29T23:48:28;98794.25;;;9.27;100.00
76847;BME280;65813;49.546;8.644;2024-03-29T23:52:29;98792.44;;;9.18;100.00
76847;BME280;65813;49.546;8.644;2024-03-29T23:56:29;98787.56;;;9.03;100.00
